ESPA/LLA METAR and TAF weather

Enter ICAO airport designator
Station Type Date Time Source
ESPA METAR 2018/04/21 20:50 UTC NOAA

ESPA 212050Z AUTO 06004KT 030V100 9999 -UP OVC025/// 01/M01 Q1006


Station Type Date Time Source
ESPA Decoded METAR 2018/04/21 20:50 UTC NOAA

Lulea / Kallax, Sweden (ESPA) 65-33N 022-08E 34M
Apr 21, 2018 - 04:50 PM EDT / 2018.04.21 2050 UTC
Wind: from the ENE (060 degrees) at 5 MPH (4 KT) (direction variable):0
Visibility: greater than 7 mile(s):0
Sky conditions: overcast
Weather: light precipitation
Temperature: 33 F (1 C)
Windchill: 28 F (-2 C):1
Dew Point: 30 F (-1 C)
Relative Humidity: 86%
Pressure (altimeter): 29.71 in. Hg (1006 hPa)
ob: ESPA 212050Z AUTO 06004KT 030V100 9999 -UP OVC025/// 01/M01 Q1006
cycle: 21

Station Type Date Time Source
ESPA TAF 2017/09/16 02:00 UTC NOAA

TAF ESPA 160200 160400/160412 35008KT 9999 BKN007 PROB40 1604/1609 BKN012
TEMPO 1609/1612 BKN015


Example: see airport list